EUFO2: Eufaula Lake

Data processed at Wed May 22 2019 23:50


All information presented herein is the property of the government of the United States of America and may be revised or deleted at any time without prior notice.
Dissemination of this information without the expressed written consent of the Public Affairs Office, Tulsa District U.S. Army Corps of Engineers is strictly prohibited.
These data are gathered electronically and, as presented, have not undergone any form of quality control. These data are not guaranteed to be valid or correct.
Go to home page.
Go to station list.
Go to home page.

Upstream stations:

Downstream station:
Previous Day
Next Day
Current Day
    
SHEF ID:       EUFO2     Eufaula Lake
STATION TYPE:  RESERVOIR
Flood Pool:  Bottom =   585.00, Top =   597.00

               PRECIP ELEVATION   STORAGE   TW-ELEV    INFLOW   RELEASE  AIR-TEMP  WIND-DIRWIND-SPEED REL-HUMID SOLAR-RAD   VOLTAGE  BAT-LOAD
                   in        ft     ac-ft        ft       cfs       cfs         F       deg       mph         %      W/m2      volt      volt
              Ccp-Rev   Ccp-Rev   Ccp-Rev   Ccp-Rev  Rev-Regi  Rev-Regi   Ccp-Rev   Ccp-Rev   Ccp-Rev   Ccp-Rev   Ccp-Rev   Ccp-Rev   Ccp-Rev
(US/Central)
05/22 00:00      0.00    591.47   2858165    482.57     44219         0     68.04    133.60      7.80     68.49      0.00     13.61     13.41
05/22 01:00      0.00    591.49   2860449    482.57     46983         0     67.96    135.90      7.50     67.27      0.00     13.61     13.32
05/22 02:00      0.00    591.53   2865017    482.56     46983         0     68.31    135.90      7.20     62.12      0.00     13.61     13.32
05/22 03:00      0.00    591.56   2868443    482.56     38692         0     68.43    125.90      6.20     57.24      0.00     13.61     13.32
05/22 04:00      0.00    591.58   2870727    482.56     41456         0     66.79    118.10      5.60     60.23      0.00     13.61     13.32
05/22 05:00      0.00    591.61   2874153    482.55     38692         0     68.27    133.00      7.30     56.32      0.00     13.61     13.32
05/22 06:00      0.00    591.64   2877579    482.55     38692         0     68.58    134.30      7.00     56.16      0.00     13.61     13.32
05/22 07:00      0.00    591.67   2881005    482.55     44219         0     68.52    125.80      5.80     56.93     21.80     13.61     13.32
05/22 08:00      0.00    591.70   2884431    482.55     44219         0     69.31    129.80      5.30     70.41     67.20     13.61     13.32
05/22 09:00      0.02    591.74   2888999    482.55     44219         0     72.21    156.80     11.80     80.20    134.80     13.61     13.32
05/22 10:00      0.00    591.77   2892426    482.54     41456         0     73.90    168.40     14.40     81.22    462.00     13.61     13.32
05/22 11:00      0.00    591.80   2895852    482.54     44219         0     76.44    163.90     12.70     78.43    663.30     13.61     13.31
05/22 12:00      0.00    591.82   2898136    482.54     38692         0     79.56    155.00     13.70     70.97    800.80     13.61     13.32
05/22 13:00      0.00    591.86   2902704    482.53     35928         0     81.52    167.20     13.40     67.28    659.90     13.61     13.31
05/22 14:00      0.00    591.88   2904988    482.53     33343         0     82.49    159.00     13.20     66.70    732.40     13.61     13.32
05/22 15:00      0.01    591.90   2907272    482.53     38354         0     83.46    158.10     14.20     65.92    779.30     13.61     13.32
05/22 16:00      0.00    591.92   2909556    482.87     44333       892     85.23    153.40     14.30     62.77    725.90     13.61     13.30
05/22 17:00      0.00    591.95   2912982    487.06     38805     11237     86.41    160.00     13.20     59.72    615.90     13.61     13.31
05/22 18:00      0.00    592.01   2919871    485.93     36131      1808     85.84    156.50     11.60     60.28    131.30     13.61     13.31
05/22 19:00      0.00    592.01   2919871    484.92     53252         0     84.90    142.00     13.00     63.27    218.60     13.62     13.32
05/22 20:00      0.00    592.02   2921050    484.30     42713         0     83.35    139.90     11.90     63.81     46.50     13.62     13.32
05/22 21:00      0.00    592.10   2930483    483.85     34240         0     81.91    136.20     10.90     66.04      0.50     13.61     13.32
05/22 22:00      0.00    592.10   2930483    483.50     34240         0     80.71    134.60      9.70     67.89      0.00     13.61     13.31
05/22 23:00      0.00    592.13   2934020    483.23     48507         0     80.94    124.80      9.10     65.51      0.00     13.61     13.32